sensor_id;sensor_type;location;lat;lon;timestamp;temperature;humidity
1135;DHT22;556;53.550;10.048;2022-07-03T00:01:59;24.10;37.50
1135;DHT22;556;53.550;10.048;2022-07-03T00:04:26;24.10;37.40
1135;DHT22;556;53.550;10.048;2022-07-03T00:06:55;24.10;37.50
1135;DHT22;556;53.550;10.048;2022-07-03T00:09:22;24.10;37.40
1135;DHT22;556;53.550;10.048;2022-07-03T00:11:51;24.10;37.40
1135;DHT22;556;53.550;10.048;2022-07-03T00:14:18;24.10;37.40
1135;DHT22;556;53.550;10.048;2022-07-03T00:16:45;24.20;37.50
1135;DHT22;556;53.550;10.048;2022-07-03T00:19:13;24.20;38.00
1135;DHT22;556;53.550;10.048;2022-07-03T00:21:49;24.20;37.50
1135;DHT22;556;53.550;10.048;2022-07-03T00:24:24;24.20;37.40
1135;DHT22;556;53.550;10.048;2022-07-03T00:26:53;24.20;38.00
1135;DHT22;556;53.550;10.048;2022-07-03T00:29:21;24.20;37.90
1135;DHT22;556;53.550;10.048;2022-07-03T00:31:49;24.30;37.50
1135;DHT22;556;53.550;10.048;2022-07-03T00:34:17;24.30;37.40
1135;DHT22;556;53.550;10.048;2022-07-03T00:36:46;24.30;37.90
1135;DHT22;556;53.550;10.048;2022-07-03T00:39:13;24.30;37.50
1135;DHT22;556;53.550;10.048;2022-07-03T00:41:44;24.20;37.40
1135;DHT22;556;53.550;10.048;2022-07-03T00:44:13;24.20;37.50
1135;DHT22;556;53.550;10.048;2022-07-03T00:46:41;24.20;37.50
1135;DHT22;556;53.550;10.048;2022-07-03T00:49:09;24.20;37.50
1135;DHT22;556;53.550;10.048;2022-07-03T00:51:38;24.20;37.50
1135;DHT22;556;53.550;10.048;2022-07-03T00:54:08;24.10;37.50
1135;DHT22;556;53.550;10.048;2022-07-03T00:56:39;24.10;37.50
1135;DHT22;556;53.550;10.048;2022-07-03T00:59:08;24.10;38.00
1135;DHT22;556;53.550;10.048;2022-07-03T01:01:37;24.10;37.50
1135;DHT22;556;53.550;10.048;2022-07-03T01:04:21;24.10;37.50
1135;DHT22;556;53.550;10.048;2022-07-03T01:06:53;24.10;37.50
1135;DHT22;556;53.550;10.048;2022-07-03T01:09:34;24.10;37.50
1135;DHT22;556;53.550;10.048;2022-07-03T01:12:09;24.00;37.40
1135;DHT22;556;53.550;10.048;2022-07-03T01:14:47;24.00;37.40
1135;DHT22;556;53.550;10.048;2022-07-03T01:17:24;24.00;37.40
1135;DHT22;556;53.550;10.048;2022-07-03T01:19:56;24.00;37.40
1135;DHT22;556;53.550;10.048;2022-07-03T01:22:34;23.90;37.40
1135;DHT22;556;53.550;10.048;2022-07-03T01:25:16;23.90;37.90
1135;DHT22;556;53.550;10.048;2022-07-03T01:27:56;23.70;37.40
1135;DHT22;556;53.550;10.048;2022-07-03T01:30:26;23.70;38.00
1135;DHT22;556;53.550;10.048;2022-07-03T01:32:58;23.70;37.50
1135;DHT22;556;53.550;10.048;2022-07-03T01:35:34;23.70;38.00
1135;DHT22;556;53.550;10.048;2022-07-03T01:38:03;23.60;37.50
1135;DHT22;556;53.550;10.048;2022-07-03T01:40:36;23.60;37.50
1135;DHT22;556;53.550;10.048;2022-07-03T01:43:09;23.60;38.00
1135;DHT22;556;53.550;10.048;2022-07-03T01:45:39;23.60;37.50
1135;DHT22;556;53.550;10.048;2022-07-03T01:48:11;23.50;37.50
1135;DHT22;556;53.550;10.048;2022-07-03T01:50:39;23.50;38.00
1135;DHT22;556;53.550;10.048;2022-07-03T01:53:09;23.50;38.00
1135;DHT22;556;53.550;10.048;2022-07-03T01:55:39;23.50;38.00
1135;DHT22;556;53.550;10.048;2022-07-03T01:58:08;23.50;37.60
1135;DHT22;556;53.550;10.048;2022-07-03T02:00:41;23.50;37.60
1135;DHT22;556;53.550;10.048;2022-07-03T02:03:18;23.50;37.50
1135;DHT22;556;53.550;10.048;2022-07-03T02:05:48;23.50;37.60
1135;DHT22;556;53.550;10.048;2022-07-03T02:08:27;23.60;37.50
1135;DHT22;556;53.550;10.048;2022-07-03T02:11:09;23.60;38.10
1135;DHT22;556;53.550;10.048;2022-07-03T02:13:50;23.60;37.60
1135;DHT22;556;53.550;10.048;2022-07-03T02:16:20;23.60;37.60
1135;DHT22;556;53.550;10.048;2022-07-03T02:18:55;23.60;37.60
1135;DHT22;556;53.550;10.048;2022-07-03T02:21:26;23.60;37.60
1135;DHT22;556;53.550;10.048;2022-07-03T02:24:05;23.60;37.60
1135;DHT22;556;53.550;10.048;2022-07-03T02:26:38;23.60;37.60
1135;DHT22;556;53.550;10.048;2022-07-03T02:29:12;23.60;37.60
1135;DHT22;556;53.550;10.048;2022-07-03T02:31:43;23.50;37.60
1135;DHT22;556;53.550;10.048;2022-07-03T02:34:15;23.40;37.60
1135;DHT22;556;53.550;10.048;2022-07-03T02:36:46;23.50;37.70
1135;DHT22;556;53.550;10.048;2022-07-03T02:39:20;23.50;37.70
1135;DHT22;556;53.550;10.048;2022-07-03T02:41:53;23.50;37.70
1135;DHT22;556;53.550;10.048;2022-07-03T02:44:27;23.50;37.60
1135;DHT22;556;53.550;10.048;2022-07-03T02:47:03;23.50;37.60
1135;DHT22;556;53.550;10.048;2022-07-03T02:49:50;23.50;38.20
1135;DHT22;556;53.550;10.048;2022-07-03T02:52:35;23.60;38.20
1135;DHT22;556;53.550;10.048;2022-07-03T02:55:10;23.60;38.30
1135;DHT22;556;53.550;10.048;2022-07-03T02:57:39;23.60;37.80
1135;DHT22;556;53.550;10.048;2022-07-03T03:00:10;23.50;38.80
1135;DHT22;556;53.550;10.048;2022-07-03T03:02:54;23.50;37.70
1135;DHT22;556;53.550;10.048;2022-07-03T03:05:30;23.50;38.30
1135;DHT22;556;53.550;10.048;2022-07-03T03:08:05;23.50;37.80
1135;DHT22;556;53.550;10.048;2022-07-03T03:10:35;23.50;38.30
1135;DHT22;556;53.550;10.048;2022-07-03T03:15:34;23.50;37.80
1135;DHT22;556;53.550;10.048;2022-07-03T03:18:04;23.50;38.30
1135;DHT22;556;53.550;10.048;2022-07-03T03:20:32;23.50;37.80
1135;DHT22;556;53.550;10.048;2022-07-03T03:23:10;23.50;37.80
1135;DHT22;556;53.550;10.048;2022-07-03T03:25:38;23.50;37.80
1135;DHT22;556;53.550;10.048;2022-07-03T03:28:06;23.50;37.80
1135;DHT22;556;53.550;10.048;2022-07-03T03:30:36;23.50;37.80
1135;DHT22;556;53.550;10.048;2022-07-03T03:33:05;23.50;38.30
1135;DHT22;556;53.550;10.048;2022-07-03T03:35:37;23.50;37.90
1135;DHT22;556;53.550;10.048;2022-07-03T03:38:05;23.40;38.40
1135;DHT22;556;53.550;10.048;2022-07-03T03:40:32;23.20;37.90
1135;DHT22;556;53.550;10.048;2022-07-03T03:43:00;23.20;38.00
1135;DHT22;556;53.550;10.048;2022-07-03T03:45:27;23.10;38.00
1135;DHT22;556;53.550;10.048;2022-07-03T03:47:56;23.10;38.20
1135;DHT22;556;53.550;10.048;2022-07-03T03:50:24;23.00;38.20
1135;DHT22;556;53.550;10.048;2022-07-03T03:52:51;23.00;38.60
1135;DHT22;556;53.550;10.048;2022-07-03T03:55:18;22.90;38.30
1135;DHT22;556;53.550;10.048;2022-07-03T03:57:46;22.90;38.70
1135;DHT22;556;53.550;10.048;2022-07-03T04:00:14;22.90;38.30
1135;DHT22;556;53.550;10.048;2022-07-03T04:02:42;22.80;38.80
1135;DHT22;556;53.550;10.048;2022-07-03T04:05:11;22.80;38.30
1135;DHT22;556;53.550;10.048;2022-07-03T04:07:38;22.90;38.40
1135;DHT22;556;53.550;10.048;2022-07-03T04:10:06;22.80;38.40
1135;DHT22;556;53.550;10.048;2022-07-03T04:12:34;22.80;38.90
1135;DHT22;556;53.550;10.048;2022-07-03T04:15:02;22.80;38.50
1135;DHT22;556;53.550;10.048;2022-07-03T04:17:30;22.80;38.60
1135;DHT22;556;53.550;10.048;2022-07-03T04:19:57;22.90;38.50
1135;DHT22;556;53.550;10.048;2022-07-03T04:22:26;22.90;39.00
1135;DHT22;556;53.550;10.048;2022-07-03T04:24:53;22.90;38.60
1135;DHT22;556;53.550;10.048;2022-07-03T04:27:20;22.90;38.50
1135;DHT22;556;53.550;10.048;2022-07-03T04:29:47;23.00;38.60
1135;DHT22;556;53.550;10.048;2022-07-03T04:32:15;23.10;38.50
1135;DHT22;556;53.550;10.048;2022-07-03T04:34:42;23.10;38.50
1135;DHT22;556;53.550;10.048;2022-07-03T04:37:09;23.20;38.50
1135;DHT22;556;53.550;10.048;2022-07-03T04:39:37;23.20;38.50
1135;DHT22;556;53.550;10.048;2022-07-03T04:42:05;23.20;38.40
1135;DHT22;556;53.550;10.048;2022-07-03T04:44:32;23.30;38.50
1135;DHT22;556;53.550;10.048;2022-07-03T04:47:00;23.30;38.60
1135;DHT22;556;53.550;10.048;2022-07-03T04:49:27;21.70;37.80
1135;DHT22;556;53.550;10.048;2022-07-03T04:51:54;23.30;38.60
1135;DHT22;556;53.550;10.048;2022-07-03T04:54:22;23.20;38.60
1135;DHT22;556;53.550;10.048;2022-07-03T04:56:51;23.20;38.60
1135;DHT22;556;53.550;10.048;2022-07-03T04:59:18;23.20;38.70
1135;DHT22;556;53.550;10.048;2022-07-03T05:01:45;23.20;38.70
1135;DHT22;556;53.550;10.048;2022-07-03T05:04:13;23.20;38.60
1135;DHT22;556;53.550;10.048;2022-07-03T05:06:40;23.30;39.20
1135;DHT22;556;53.550;10.048;2022-07-03T05:09:08;23.30;38.60
1135;DHT22;556;53.550;10.048;2022-07-03T05:11:35;23.30;38.70
1135;DHT22;556;53.550;10.048;2022-07-03T05:14:04;23.20;38.60
1135;DHT22;556;53.550;10.048;2022-07-03T05:16:31;23.30;39.20
1135;DHT22;556;53.550;10.048;2022-07-03T05:19:00;23.20;38.80
1135;DHT22;556;53.550;10.048;2022-07-03T05:21:27;23.30;38.80
1135;DHT22;556;53.550;10.048;2022-07-03T05:23:55;23.30;38.80
1135;DHT22;556;53.550;10.048;2022-07-03T05:26:22;23.40;38.90
1135;DHT22;556;53.550;10.048;2022-07-03T05:28:50;23.30;38.80
1135;DHT22;556;53.550;10.048;2022-07-03T05:31:18;23.40;38.90
1135;DHT22;556;53.550;10.048;2022-07-03T05:33:45;23.40;39.40
1135;DHT22;556;53.550;10.048;2022-07-03T05:36:12;23.50;39.00
1135;DHT22;556;53.550;10.048;2022-07-03T05:38:39;23.50;38.90
1135;DHT22;556;53.550;10.048;2022-07-03T05:41:24;23.70;38.80
1135;DHT22;556;53.550;10.048;2022-07-03T05:43:51;23.80;38.80
1135;DHT22;556;53.550;10.048;2022-07-03T05:46:20;23.90;38.90
1135;DHT22;556;53.550;10.048;2022-07-03T05:48:47;23.90;39.40
1135;DHT22;556;53.550;10.048;2022-07-03T05:51:14;24.00;38.80
1135;DHT22;556;53.550;10.048;2022-07-03T05:53:41;24.10;38.90
1135;DHT22;556;53.550;10.048;2022-07-03T05:56:08;24.30;38.90
1135;DHT22;556;53.550;10.048;2022-07-03T05:58:36;24.30;38.80
1135;DHT22;556;53.550;10.048;2022-07-03T06:01:03;24.50;38.80
1135;DHT22;556;53.550;10.048;2022-07-03T06:03:31;24.50;39.20
1135;DHT22;556;53.550;10.048;2022-07-03T06:06:17;24.70;38.80
1135;DHT22;556;53.550;10.048;2022-07-03T06:09:02;24.80;38.70
1135;DHT22;556;53.550;10.048;2022-07-03T06:11:48;25.00;39.20
1135;DHT22;556;53.550;10.048;2022-07-03T06:14:34;25.30;38.40
1135;DHT22;556;53.550;10.048;2022-07-03T06:17:19;25.40;38.40
1135;DHT22;556;53.550;10.048;2022-07-03T06:20:08;25.60;38.30
1135;DHT22;556;53.550;10.048;2022-07-03T06:22:53;25.70;38.80
1135;DHT22;556;53.550;10.048;2022-07-03T06:25:39;25.70;38.20
1135;DHT22;556;53.550;10.048;2022-07-03T06:28:25;25.80;38.70
1135;DHT22;556;53.550;10.048;2022-07-03T06:31:10;25.90;38.50
1135;DHT22;556;53.550;10.048;2022-07-03T06:33:56;26.00;37.90
1135;DHT22;556;53.550;10.048;2022-07-03T06:36:43;26.10;38.00
1135;DHT22;556;53.550;10.048;2022-07-03T06:39:29;26.20;38.00
1135;DHT22;556;53.550;10.048;2022-07-03T06:42:14;26.20;37.90
1135;DHT22;556;53.550;10.048;2022-07-03T06:45:05;26.40;37.90
1135;DHT22;556;53.550;10.048;2022-07-03T06:47:51;26.30;38.30
1135;DHT22;556;53.550;10.048;2022-07-03T06:50:36;26.40;37.80
1135;DHT22;556;53.550;10.048;2022-07-03T06:53:24;26.40;37.70
1135;DHT22;556;53.550;10.048;2022-07-03T06:56:09;26.40;38.30
1135;DHT22;556;53.550;10.048;2022-07-03T06:58:55;26.50;38.30
1135;DHT22;556;53.550;10.048;2022-07-03T07:01:40;26.50;37.80
1135;DHT22;556;53.550;10.048;2022-07-03T07:04:26;26.50;38.20
1135;DHT22;556;53.550;10.048;2022-07-03T07:07:11;26.50;38.40
1135;DHT22;556;53.550;10.048;2022-07-03T07:09:58;26.40;37.90
1135;DHT22;556;53.550;10.048;2022-07-03T07:12:44;26.40;38.40
1135;DHT22;556;53.550;10.048;2022-07-03T07:15:30;26.50;37.80
1135;DHT22;556;53.550;10.048;2022-07-03T07:18:15;26.60;37.90
1135;DHT22;556;53.550;10.048;2022-07-03T07:21:00;26.70;37.60
1135;DHT22;556;53.550;10.048;2022-07-03T07:23:46;26.70;38.10
1135;DHT22;556;53.550;10.048;2022-07-03T07:26:33;26.70;38.00
1135;DHT22;556;53.550;10.048;2022-07-03T07:29:18;26.80;37.40
1135;DHT22;556;53.550;10.048;2022-07-03T07:32:05;26.80;37.50
1135;DHT22;556;53.550;10.048;2022-07-03T07:34:50;26.90;37.50
1135;DHT22;556;53.550;10.048;2022-07-03T07:37:36;27.00;37.90
1135;DHT22;556;53.550;10.048;2022-07-03T07:40:21;27.10;37.70
1135;DHT22;556;53.550;10.048;2022-07-03T07:43:08;27.20;37.60
1135;DHT22;556;53.550;10.048;2022-07-03T07:45:54;27.30;37.50
1135;DHT22;556;53.550;10.048;2022-07-03T07:48:40;27.40;37.40
1135;DHT22;556;53.550;10.048;2022-07-03T07:51:25;27.40;36.60
1135;DHT22;556;53.550;10.048;2022-07-03T07:54:11;27.40;37.10
1135;DHT22;556;53.550;10.048;2022-07-03T07:56:56;27.50;36.50
1135;DHT22;556;53.550;10.048;2022-07-03T07:59:43;27.50;36.40
1135;DHT22;556;53.550;10.048;2022-07-03T08:02:29;27.50;36.30
1135;DHT22;556;53.550;10.048;2022-07-03T08:05:32;27.60;36.80
1135;DHT22;556;53.550;10.048;2022-07-03T08:08:21;27.70;36.70
1135;DHT22;556;53.550;10.048;2022-07-03T08:11:07;27.80;35.80
1135;DHT22;556;53.550;10.048;2022-07-03T08:13:53;28.00;36.40
1135;DHT22;556;53.550;10.048;2022-07-03T08:16:40;28.10;36.10
1135;DHT22;556;53.550;10.048;2022-07-03T08:19:26;28.20;35.90
1135;DHT22;556;53.550;10.048;2022-07-03T08:22:12;28.30;35.10
1135;DHT22;556;53.550;10.048;2022-07-03T08:24:58;28.40;34.90
1135;DHT22;556;53.550;10.048;2022-07-03T08:27:43;28.40;34.90
1135;DHT22;556;53.550;10.048;2022-07-03T08:30:29;28.60;35.20
1135;DHT22;556;53.550;10.048;2022-07-03T08:33:16;28.70;35.00
1135;DHT22;556;53.550;10.048;2022-07-03T08:36:03;28.70;34.80
1135;DHT22;556;53.550;10.048;2022-07-03T08:38:49;28.90;34.00
1135;DHT22;556;53.550;10.048;2022-07-03T08:41:35;29.10;33.80
1135;DHT22;556;53.550;10.048;2022-07-03T08:44:22;29.30;33.60
1135;DHT22;556;53.550;10.048;2022-07-03T08:47:12;29.40;34.00
1135;DHT22;556;53.550;10.048;2022-07-03T08:50:00;29.60;33.70
1135;DHT22;556;53.550;10.048;2022-07-03T08:52:47;29.60;33.50
1135;DHT22;556;53.550;10.048;2022-07-03T08:55:33;29.70;33.50
1135;DHT22;556;53.550;10.048;2022-07-03T08:58:21;29.70;33.00
1135;DHT22;556;53.550;10.048;2022-07-03T09:01:07;29.80;33.40
1135;DHT22;556;53.550;10.048;2022-07-03T09:03:54;30.10;33.20
1135;DHT22;556;53.550;10.048;2022-07-03T09:06:43;30.40;32.90
1135;DHT22;556;53.550;10.048;2022-07-03T09:09:29;30.40;32.70
1135;DHT22;556;53.550;10.048;2022-07-03T09:12:14;30.60;32.60
1135;DHT22;556;53.550;10.048;2022-07-03T09:15:01;30.70;31.80
1135;DHT22;556;53.550;10.048;2022-07-03T09:17:57;31.00;31.70
1135;DHT22;556;53.550;10.048;2022-07-03T09:20:43;30.90;32.10
1135;DHT22;556;53.550;10.048;2022-07-03T09:23:35;31.00;31.50
1135;DHT22;556;53.550;10.048;2022-07-03T09:26:21;31.10;31.90
1135;DHT22;556;53.550;10.048;2022-07-03T09:29:12;31.20;31.30
1135;DHT22;556;53.550;10.048;2022-07-03T09:31:58;31.20;31.10
1135;DHT22;556;53.550;10.048;2022-07-03T09:34:43;31.10;31.10
1135;DHT22;556;53.550;10.048;2022-07-03T09:37:29;31.10;31.10
1135;DHT22;556;53.550;10.048;2022-07-03T09:40:20;31.10;31.50
1135;DHT22;556;53.550;10.048;2022-07-03T09:43:07;30.70;31.10
1135;DHT22;556;53.550;10.048;2022-07-03T09:45:54;30.60;31.30
1135;DHT22;556;53.550;10.048;2022-07-03T09:48:41;30.50;31.80
1135;DHT22;556;53.550;10.048;2022-07-03T09:51:26;30.40;31.10
1135;DHT22;556;53.550;10.048;2022-07-03T09:54:14;30.40;32.20
1135;DHT22;556;53.550;10.048;2022-07-03T09:57:11;30.30;31.10
1135;DHT22;556;53.550;10.048;2022-07-03T10:00:19;30.20;31.00
1135;DHT22;556;53.550;10.048;2022-07-03T10:03:06;30.20;31.00
1135;DHT22;556;53.550;10.048;2022-07-03T10:06:03;30.10;31.00
1135;DHT22;556;53.550;10.048;2022-07-03T10:08:49;30.00;31.00
1135;DHT22;556;53.550;10.048;2022-07-03T10:11:36;29.70;31.10
1135;DHT22;556;53.550;10.048;2022-07-03T10:14:24;29.70;31.20
1135;DHT22;556;53.550;10.048;2022-07-03T10:17:10;29.50;31.30
1135;DHT22;556;53.550;10.048;2022-07-03T10:19:56;29.50;31.30
1135;DHT22;556;53.550;10.048;2022-07-03T10:22:44;29.40;31.40
1135;DHT22;556;53.550;10.048;2022-07-03T10:25:31;29.40;32.10
1135;DHT22;556;53.550;10.048;2022-07-03T10:28:19;29.10;31.90
1135;DHT22;556;53.550;10.048;2022-07-03T10:31:07;29.20;32.00
1135;DHT22;556;53.550;10.048;2022-07-03T10:33:54;29.10;31.90
1135;DHT22;556;53.550;10.048;2022-07-03T10:36:40;29.20;31.80
1135;DHT22;556;53.550;10.048;2022-07-03T10:39:37;29.20;31.70
1135;DHT22;556;53.550;10.048;2022-07-03T10:42:30;29.30;32.30
1135;DHT22;556;53.550;10.048;2022-07-03T10:46:09;29.30;32.20
1135;DHT22;556;53.550;10.048;2022-07-03T10:49:03;29.50;31.70
1135;DHT22;556;53.550;10.048;2022-07-03T10:51:55;29.60;32.20
1135;DHT22;556;53.550;10.048;2022-07-03T10:54:49;29.70;32.00
1135;DHT22;556;53.550;10.048;2022-07-03T10:57:35;30.00;31.40
1135;DHT22;556;53.550;10.048;2022-07-03T11:00:21;30.20;31.40
1135;DHT22;556;53.550;10.048;2022-07-03T11:03:08;30.20;31.80
1135;DHT22;556;53.550;10.048;2022-07-03T11:05:56;30.50;31.80
1135;DHT22;556;53.550;10.048;2022-07-03T11:09:03;30.60;31.10
1135;DHT22;556;53.550;10.048;2022-07-03T11:11:49;30.80;30.90
1135;DHT22;556;53.550;10.048;2022-07-03T11:14:40;31.50;30.70
1135;DHT22;556;53.550;10.048;2022-07-03T11:17:26;31.90;30.30
1135;DHT22;556;53.550;10.048;2022-07-03T11:20:25;32.00;30.00
1135;DHT22;556;53.550;10.048;2022-07-03T11:23:17;32.00;30.00
1135;DHT22;556;53.550;10.048;2022-07-03T11:26:22;32.20;30.00
1135;DHT22;556;53.550;10.048;2022-07-03T11:29:25;32.40;29.90
1135;DHT22;556;53.550;10.048;2022-07-03T11:32:50;32.40;29.70
1135;DHT22;556;53.550;10.048;2022-07-03T11:35:44;32.40;30.00
1135;DHT22;556;53.550;10.048;2022-07-03T11:38:32;32.30;29.60
1135;DHT22;556;53.550;10.048;2022-07-03T11:41:17;32.50;29.60
1135;DHT22;556;53.550;10.048;2022-07-03T11:44:05;32.60;29.40
1135;DHT22;556;53.550;10.048;2022-07-03T11:46:52;32.80;29.30
1135;DHT22;556;53.550;10.048;2022-07-03T11:49:47;33.00;29.20
1135;DHT22;556;53.550;10.048;2022-07-03T11:52:34;33.10;29.00
1135;DHT22;556;53.550;10.048;2022-07-03T11:55:20;33.30;29.00
1135;DHT22;556;53.550;10.048;2022-07-03T11:58:05;33.90;28.80
1135;DHT22;556;53.550;10.048;2022-07-03T12:00:51;33.90;29.00
1135;DHT22;556;53.550;10.048;2022-07-03T12:03:37;34.20;28.50
1135;DHT22;556;53.550;10.048;2022-07-03T12:06:23;34.20;28.30
1135;DHT22;556;53.550;10.048;2022-07-03T12:09:15;34.20;28.60
1135;DHT22;556;53.550;10.048;2022-07-03T12:12:02;34.00;28.20
1135;DHT22;556;53.550;10.048;2022-07-03T12:14:49;33.90;28.00
1135;DHT22;556;53.550;10.048;2022-07-03T12:17:35;33.70;27.90
1135;DHT22;556;53.550;10.048;2022-07-03T12:20:21;33.60;28.30
1135;DHT22;556;53.550;10.048;2022-07-03T12:23:07;33.30;28.00
1135;DHT22;556;53.550;10.048;2022-07-03T12:25:54;33.30;28.40
1135;DHT22;556;53.550;10.048;2022-07-03T12:28:40;33.10;28.60
1135;DHT22;556;53.550;10.048;2022-07-03T12:31:26;33.10;28.60
1135;DHT22;556;53.550;10.048;2022-07-03T12:34:14;33.10;28.20
1135;DHT22;556;53.550;10.048;2022-07-03T12:37:00;33.30;28.20
1135;DHT22;556;53.550;10.048;2022-07-03T12:39:47;33.30;28.50
1135;DHT22;556;53.550;10.048;2022-07-03T12:42:42;33.90;28.10
1135;DHT22;556;53.550;10.048;2022-07-03T12:45:28;34.60;27.90
1135;DHT22;556;53.550;10.048;2022-07-03T12:48:17;34.80;28.20
1135;DHT22;556;53.550;10.048;2022-07-03T12:51:02;35.10;28.10
1135;DHT22;556;53.550;10.048;2022-07-03T12:53:54;35.30;28.10
1135;DHT22;556;53.550;10.048;2022-07-03T12:56:40;36.30;27.40
1135;DHT22;556;53.550;10.048;2022-07-03T12:59:28;36.90;27.50
1135;DHT22;556;53.550;10.048;2022-07-03T13:02:13;38.70;26.60
1135;DHT22;556;53.550;10.048;2022-07-03T13:05:01;39.10;26.90
1135;DHT22;556;53.550;10.048;2022-07-03T13:07:47;40.20;25.90
1135;DHT22;556;53.550;10.048;2022-07-03T13:10:34;40.30;26.20
1135;DHT22;556;53.550;10.048;2022-07-03T13:13:20;41.10;25.90
1135;DHT22;556;53.550;10.048;2022-07-03T13:16:25;41.40;25.60
1135;DHT22;556;53.550;10.048;2022-07-03T13:19:12;41.40;25.10
1135;DHT22;556;53.550;10.048;2022-07-03T13:21:57;41.50;25.50
1135;DHT22;556;53.550;10.048;2022-07-03T13:24:43;42.00;25.20
1135;DHT22;556;53.550;10.048;2022-07-03T13:27:29;42.70;24.90
1135;DHT22;556;53.550;10.048;2022-07-03T13:30:16;42.90;24.50
1135;DHT22;556;53.550;10.048;2022-07-03T13:33:04;43.10;24.30
1135;DHT22;556;53.550;10.048;2022-07-03T13:35:50;43.30;24.10
1135;DHT22;556;53.550;10.048;2022-07-03T13:38:35;43.20;23.40
1135;DHT22;556;53.550;10.048;2022-07-03T13:41:21;43.40;23.80
1135;DHT22;556;53.550;10.048;2022-07-03T13:44:07;43.90;23.10
1135;DHT22;556;53.550;10.048;2022-07-03T13:46:52;44.30;23.40
1135;DHT22;556;53.550;10.048;2022-07-03T13:49:39;44.60;23.30
1135;DHT22;556;53.550;10.048;2022-07-03T13:52:25;44.90;22.80
1135;DHT22;556;53.550;10.048;2022-07-03T13:55:10;45.10;22.50
1135;DHT22;556;53.550;10.048;2022-07-03T13:57:57;45.30;21.60
1135;DHT22;556;53.550;10.048;2022-07-03T14:00:42;45.50;22.10
1135;DHT22;556;53.550;10.048;2022-07-03T14:03:28;45.60;22.10
1135;DHT22;556;53.550;10.048;2022-07-03T14:06:15;45.80;21.90
1135;DHT22;556;53.550;10.048;2022-07-03T14:09:00;46.20;21.70
1135;DHT22;556;53.550;10.048;2022-07-03T14:11:46;46.60;21.40
1135;DHT22;556;53.550;10.048;2022-07-03T14:14:32;47.00;20.50
1135;DHT22;556;53.550;10.048;2022-07-03T14:17:17;46.80;20.80
1135;DHT22;556;53.550;10.048;2022-07-03T14:20:04;46.40;20.20
1135;DHT22;556;53.550;10.048;2022-07-03T14:22:51;46.50;20.80
1135;DHT22;556;53.550;10.048;2022-07-03T14:25:37;46.60;20.70
1135;DHT22;556;53.550;10.048;2022-07-03T14:28:22;46.70;20.50
1135;DHT22;556;53.550;10.048;2022-07-03T14:31:25;46.70;20.50
1135;DHT22;556;53.550;10.048;2022-07-03T14:34:28;46.90;20.40
1135;DHT22;556;53.550;10.048;2022-07-03T14:37:14;47.20;20.40
1135;DHT22;556;53.550;10.048;2022-07-03T14:40:05;47.30;20.00
1135;DHT22;556;53.550;10.048;2022-07-03T14:42:50;46.90;19.90
1135;DHT22;556;53.550;10.048;2022-07-03T14:45:36;46.60;20.00
1135;DHT22;556;53.550;10.048;2022-07-03T14:48:21;46.50;20.10
1135;DHT22;556;53.550;10.048;2022-07-03T14:51:07;46.70;19.80
1135;DHT22;556;53.550;10.048;2022-07-03T14:53:52;46.70;19.80
1135;DHT22;556;53.550;10.048;2022-07-03T14:56:46;45.20;19.40
1135;DHT22;556;53.550;10.048;2022-07-03T14:59:41;43.90;19.70
1135;DHT22;556;53.550;10.048;2022-07-03T15:02:33;43.80;20.10
1135;DHT22;556;53.550;10.048;2022-07-03T15:05:27;43.10;20.40
1135;DHT22;556;53.550;10.048;2022-07-03T15:08:36;42.60;20.50
1135;DHT22;556;53.550;10.048;2022-07-03T15:11:32;42.60;20.60
1135;DHT22;556;53.550;10.048;2022-07-03T15:14:38;42.60;20.10
1135;DHT22;556;53.550;10.048;2022-07-03T15:17:24;42.30;20.50
1135;DHT22;556;53.550;10.048;2022-07-03T15:20:12;40.50;20.50
1135;DHT22;556;53.550;10.048;2022-07-03T15:23:00;39.70;20.70
1135;DHT22;556;53.550;10.048;2022-07-03T15:25:47;39.60;20.90
1135;DHT22;556;53.550;10.048;2022-07-03T15:28:34;39.80;21.30
1135;DHT22;556;53.550;10.048;2022-07-03T15:31:21;39.50;20.80
1135;DHT22;556;53.550;10.048;2022-07-03T15:34:07;39.40;21.20
1135;DHT22;556;53.550;10.048;2022-07-03T15:37:01;38.20;21.10
1135;DHT22;556;53.550;10.048;2022-07-03T15:39:54;37.40;21.40
1135;DHT22;556;53.550;10.048;2022-07-03T15:43:03;36.60;21.70
1135;DHT22;556;53.550;10.048;2022-07-03T15:46:10;36.20;21.80
1135;DHT22;556;53.550;10.048;2022-07-03T15:49:25;34.80;22.40
1135;DHT22;556;53.550;10.048;2022-07-03T15:52:16;33.70;23.30
1135;DHT22;556;53.550;10.048;2022-07-03T15:55:04;32.70;24.20
1135;DHT22;556;53.550;10.048;2022-07-03T16:00:39;31.00;26.40
1135;DHT22;556;53.550;10.048;2022-07-03T16:03:27;30.70;27.00
1135;DHT22;556;53.550;10.048;2022-07-03T16:06:14;30.10;27.50
1135;DHT22;556;53.550;10.048;2022-07-03T16:11:46;29.20;28.20
1135;DHT22;556;53.550;10.048;2022-07-03T16:14:33;29.10;29.00
1135;DHT22;556;53.550;10.048;2022-07-03T16:17:20;30.00;28.80
1135;DHT22;556;53.550;10.048;2022-07-03T16:20:07;30.70;28.90
1135;DHT22;556;53.550;10.048;2022-07-03T16:22:56;31.30;28.20
1135;DHT22;556;53.550;10.048;2022-07-03T16:25:44;31.50;29.00
1135;DHT22;556;53.550;10.048;2022-07-03T16:28:32;31.50;28.70
1135;DHT22;556;53.550;10.048;2022-07-03T16:31:22;32.00;28.20
1135;DHT22;556;53.550;10.048;2022-07-03T16:34:15;31.50;28.40
1135;DHT22;556;53.550;10.048;2022-07-03T16:37:07;30.80;28.80
1135;DHT22;556;53.550;10.048;2022-07-03T16:39:59;30.40;29.60
1135;DHT22;556;53.550;10.048;2022-07-03T16:42:48;30.10;29.90
1135;DHT22;556;53.550;10.048;2022-07-03T16:45:34;30.40;30.00
1135;DHT22;556;53.550;10.048;2022-07-03T16:48:22;31.40;29.60
1135;DHT22;556;53.550;10.048;2022-07-03T16:51:08;32.40;29.20
1135;DHT22;556;53.550;10.048;2022-07-03T16:53:56;32.90;29.00
1135;DHT22;556;53.550;10.048;2022-07-03T16:56:44;33.10;28.90
1135;DHT22;556;53.550;10.048;2022-07-03T16:59:30;33.30;28.80
1135;DHT22;556;53.550;10.048;2022-07-03T17:02:16;33.40;28.50
1135;DHT22;556;53.550;10.048;2022-07-03T17:05:02;33.50;28.80
1135;DHT22;556;53.550;10.048;2022-07-03T17:07:49;34.00;28.70
1135;DHT22;556;53.550;10.048;2022-07-03T17:10:35;34.60;28.50
1135;DHT22;556;53.550;10.048;2022-07-03T17:13:22;34.70;28.30
1135;DHT22;556;53.550;10.048;2022-07-03T17:16:10;34.80;28.00
1135;DHT22;556;53.550;10.048;2022-07-03T17:19:01;35.30;28.20
1135;DHT22;556;53.550;10.048;2022-07-03T17:21:48;36.20;27.50
1135;DHT22;556;53.550;10.048;2022-07-03T17:24:36;36.30;27.70
1135;DHT22;556;53.550;10.048;2022-07-03T17:27:26;36.50;27.30
1135;DHT22;556;53.550;10.048;2022-07-03T17:30:15;36.60;27.60
1135;DHT22;556;53.550;10.048;2022-07-03T17:33:03;36.90;27.40
1135;DHT22;556;53.550;10.048;2022-07-03T17:36:04;37.30;27.20
1135;DHT22;556;53.550;10.048;2022-07-03T17:38:52;37.40;27.10
1135;DHT22;556;53.550;10.048;2022-07-03T17:41:38;36.40;26.90
1135;DHT22;556;53.550;10.048;2022-07-03T17:44:24;36.30;27.30
1135;DHT22;556;53.550;10.048;2022-07-03T17:47:12;35.10;27.40